Time;durP1;ratioP1;P1;durP2;ratioP2;P2;SDS_P1;SDS_P2;PMS_P1;PMS_P2;Temp;Humidity;BMP_temperature;BMP_pressure;BME280_temperature;BME280_humidity;BME280_pressure;Samples;Min_cycle;Max_cycle;Signal;HPM_P1;HPM_P2
2023/06/02 00:00:01;;;;;;;13.30;1.83;;;11.60;99.90;;;;;;4949796;28;20376;-88
2023/06/02 00:02:29;;;;;;;8.50;1.50;;;11.60;99.90;;;;;;4959268;28;20031;-88
2023/06/02 00:04:59;;;;;;;10.02;1.33;;;11.60;99.90;;;;;;4955485;28;20042;-88
2023/06/02 00:07:27;;;;;;;11.38;1.80;;;11.60;99.90;;;;;;4951125;28;20034;-88
2023/06/02 00:09:53;;;;;;;12.13;1.65;;;11.60;99.90;;;;;;4957855;28;20069;-88
2023/06/02 00:12:19;;;;;;;6.25;1.17;;;11.60;99.90;;;;;;4962402;28;20032;-88
2023/06/02 00:14:44;;;;;;;13.68;1.35;;;11.60;99.90;;;;;;4956833;28;20373;-88
2023/06/02 00:17:11;;;;;;;9.75;1.33;;;11.60;99.90;;;;;;4972536;28;20085;-88
2023/06/02 00:19:42;;;;;;;13.35;1.25;;;11.60;99.90;;;;;;4961040;28;20032;-88
2023/06/02 00:22:13;;;;;;;5.22;1.17;;;11.60;99.90;;;;;;4958397;28;20405;-88
2023/06/02 00:24:39;;;;;;;9.98;1.33;;;11.60;99.90;;;;;;4953494;28;20403;-88
2023/06/02 00:27:07;;;;;;;9.35;0.90;;;11.60;99.90;;;;;;4953331;28;20024;-87
2023/06/02 00:29:32;;;;;;;13.75;1.33;;;11.60;99.90;;;;;;4963797;28;20031;-88
2023/06/02 00:31:58;;;;;;;8.40;1.10;;;11.60;99.90;;;;;;4961416;28;20030;-88
2023/06/02 00:34:23;;;;;;;20.80;1.75;;;11.60;99.90;;;;;;4955025;28;20094;-88
2023/06/02 00:36:49;;;;;;;10.63;1.33;;;11.60;99.90;;;;;;4956581;28;20380;-88
2023/06/02 00:39:14;;;;;;;13.20;1.70;;;11.60;99.90;;;;;;4964227;28;20030;-88
2023/06/02 00:41:40;;;;;;;10.88;1.00;;;11.60;99.90;;;;;;4966523;28;20019;-87
2023/06/02 00:44:05;;;;;;;9.75;1.00;;;11.60;99.90;;;;;;4966498;28;20163;-87
2023/06/02 00:46:31;;;;;;;8.80;1.20;;;11.60;99.90;;;;;;4963038;28;20062;-88
2023/06/02 00:48:56;;;;;;;12.75;1.65;;;11.60;99.90;;;;;;4961994;28;20037;-87
2023/06/02 00:51:22;;;;;;;9.40;1.45;;;11.60;99.90;;;;;;4965682;28;20099;-88
2023/06/02 00:53:49;;;;;;;10.20;1.50;;;11.60;99.90;;;;;;4952299;28;20038;-86
2023/06/02 00:56:16;;;;;;;11.95;1.42;;;11.60;99.90;;;;;;4946064;28;20035;-89
2023/06/02 00:58:45;;;;;;;10.80;2.13;;;11.60;99.90;;;;;;4943636;28;20051;-88
2023/06/02 01:01:18;;;;;;;9.63;1.45;;;11.60;99.90;;;;;;4960881;28;20122;-88
2023/06/02 01:03:45;;;;;;;11.45;1.40;;;11.60;99.90;;;;;;4948598;28;20050;-88
2023/06/02 01:06:12;;;;;;;13.00;1.80;;;11.50;99.90;;;;;;4960286;28;20033;-88
2023/06/02 01:08:39;;;;;;;7.40;0.80;;;11.60;99.90;;;;;;4966652;28;20546;-88
2023/06/02 01:11:06;;;;;;;14.88;1.30;;;11.60;99.90;;;;;;4956125;28;20548;-88
2023/06/02 01:13:32;;;;;;;10.20;1.50;;;11.60;99.90;;;;;;4941884;28;20119;-88
2023/06/02 01:15:58;;;;;;;7.38;0.85;;;11.60;99.90;;;;;;4957123;28;20480;-88
2023/06/02 01:18:25;;;;;;;13.65;1.63;;;11.60;99.90;;;;;;4940715;28;20028;-88
2023/06/02 01:20:57;;;;;;;11.68;1.90;;;11.60;99.90;;;;;;4955702;28;20496;-88
2023/06/02 01:23:37;;;;;;;13.57;2.20;;;11.60;99.90;;;;;;4960524;28;20018;-88
2023/06/02 01:26:05;;;;;;;10.20;1.30;;;11.60;99.90;;;;;;4964151;28;20039;-88
2023/06/02 01:28:31;;;;;;;13.88;1.45;;;11.60;99.90;;;;;;4959523;28;20090;-88
2023/06/02 01:31:14;;;;;;;15.43;1.70;;;11.60;99.90;;;;;;4967385;28;20027;-88
2023/06/02 01:33:50;;;;;;;13.43;1.85;;;11.60;99.90;;;;;;4969887;28;20038;-88
2023/06/02 01:36:18;;;;;;;7.68;1.08;;;11.60;99.90;;;;;;4988270;28;20394;-88
2023/06/02 01:38:46;;;;;;;13.38;1.33;;;11.60;99.90;;;;;;4973323;28;20018;-88
2023/06/02 01:41:13;;;;;;;11.00;2.00;;;11.60;99.90;;;;;;4980384;28;20042;-89
2023/06/02 01:43:40;;;;;;;11.35;1.48;;;11.50;99.90;;;;;;4979154;28;20042;-88
2023/06/02 01:46:06;;;;;;;13.02;2.00;;;11.60;99.90;;;;;;4976482;28;20532;-88
2023/06/02 01:48:32;;;;;;;6.28;0.95;;;11.50;99.90;;;;;;4988302;28;20033;-88
2023/06/02 01:50:57;;;;;;;11.40;1.20;;;11.60;99.90;;;;;;4977439;28;20097;-89
2023/06/02 01:53:26;;;;;;;9.82;1.52;;;11.60;99.90;;;;;;4973023;28;20072;-89
2023/06/02 01:55:52;;;;;;;11.05;1.30;;;11.60;99.90;;;;;;4989501;28;20018;-89
2023/06/02 01:58:18;;;;;;;9.07;1.27;;;11.50;99.90;;;;;;4971086;28;20125;-89
2023/06/02 02:00:54;;;;;;;12.23;1.90;;;11.50;99.90;;;;;;5088534;28;20443;-72
2023/06/02 02:03:22;;;;;;;17.23;1.90;;;11.50;99.90;;;;;;5088214;28;20028;-72
2023/06/02 02:05:47;;;;;;;10.20;1.55;;;11.50;99.90;;;;;;5088291;28;20499;-72
2023/06/02 02:08:13;;;;;;;10.07;1.30;;;11.40;99.90;;;;;;5080690;28;20111;-72
2023/06/02 02:10:39;;;;;;;14.10;1.75;;;11.40;99.90;;;;;;5088423;28;20569;-72
2023/06/02 02:13:04;;;;;;;7.60;1.33;;;11.40;99.90;;;;;;5074097;28;20027;-72
2023/06/02 02:15:30;;;;;;;7.40;1.38;;;11.30;99.90;;;;;;5077302;28;20033;-71
2023/06/02 02:17:58;;;;;;;13.60;2.38;;;11.30;99.90;;;;;;5068633;28;20372;-71
2023/06/02 02:20:25;;;;;;;13.23;1.50;;;11.30;99.90;;;;;;5067704;28;20036;-72
2023/06/02 02:22:51;;;;;;;10.32;1.88;;;11.20;99.90;;;;;;5067956;28;20024;-71
2023/06/02 02:25:17;;;;;;;9.15;1.58;;;11.20;99.90;;;;;;5069969;28;20726;-72
2023/06/02 02:27:42;;;;;;;19.73;1.65;;;11.10;99.90;;;;;;5073764;28;20033;-71
2023/06/02 02:30:08;;;;;;;12.20;1.55;;;11.10;99.90;;;;;;5067485;28;20017;-71
2023/06/02 02:32:36;;;;;;;12.73;1.73;;;11.10;99.90;;;;;;5067552;28;20021;-71
2023/06/02 02:35:03;;;;;;;13.20;1.38;;;11.00;99.90;;;;;;5068323;28;20452;-72
2023/06/02 02:37:28;;;;;;;8.77;1.63;;;11.00;99.90;;;;;;5070701;28;20008;-71
2023/06/02 02:39:54;;;;;;;11.20;1.30;;;11.10;99.90;;;;;;5084739;28;20145;-71
2023/06/02 02:42:20;;;;;;;12.38;1.65;;;11.00;99.90;;;;;;5080597;28;20609;-71
2023/06/02 02:44:45;;;;;;;12.13;1.77;;;11.10;99.90;;;;;;5078983;28;20392;-71
2023/06/02 02:47:11;;;;;;;17.08;1.20;;;11.10;99.90;;;;;;5086755;28;20032;-71
2023/06/02 02:49:36;;;;;;;14.05;1.70;;;11.10;99.90;;;;;;5083082;28;20095;-72
2023/06/02 02:52:02;;;;;;;7.93;1.13;;;11.10;99.90;;;;;;5066355;28;20075;-72
2023/06/02 02:54:28;;;;;;;9.85;1.65;;;11.10;99.90;;;;;;5074621;28;20024;-71
2023/06/02 02:56:53;;;;;;;11.65;1.40;;;11.10;99.90;;;;;;5073985;28;20031;-72
2023/06/02 02:59:19;;;;;;;10.73;1.83;;;11.10;99.90;;;;;;5079318;28;20083;-72
2023/06/02 03:01:46;;;;;;;9.00;1.13;;;11.10;99.90;;;;;;5069375;28;20070;-71
2023/06/02 03:04:21;;;;;;;16.23;1.35;;;11.10;99.90;;;;;;5067180;28;20108;-72
2023/06/02 03:06:50;;;;;;;13.45;2.15;;;11.10;99.90;;;;;;5069642;28;20413;-71
2023/06/02 03:09:16;;;;;;;8.52;1.60;;;11.10;99.90;;;;;;5073345;28;20040;-72
2023/06/02 03:11:43;;;;;;;10.05;1.55;;;11.10;99.90;;;;;;5063315;28;20129;-71
2023/06/02 03:14:09;;;;;;;14.85;1.63;;;11.10;99.90;;;;;;5059450;28;20024;-72
2023/06/02 03:16:35;;;;;;;9.05;0.90;;;11.00;99.90;;;;;;5055642;28;20052;-71
2023/06/02 03:19:02;;;;;;;33.45;4.30;;;11.00;99.90;;;;;;5055040;28;20081;-71
2023/06/02 03:21:31;;;;;;;6.85;1.08;;;11.00;99.90;;;;;;5062924;28;20067;-72
2023/06/02 03:23:58;;;;;;;10.13;1.50;;;10.90;99.90;;;;;;5058306;28;20025;-71
2023/06/02 03:26:26;;;;;;;7.15;1.48;;;10.90;99.90;;;;;;5053151;28;20028;-71
2023/06/02 03:28:52;;;;;;;10.10;1.35;;;10.90;99.90;;;;;;5069212;28;20029;-71
2023/06/02 03:31:19;;;;;;;9.98;1.20;;;10.90;99.90;;;;;;5070560;28;20032;-72
2023/06/02 03:33:44;;;;;;;6.55;0.88;;;10.90;99.90;;;;;;5060057;28;20025;-71
2023/06/02 03:36:10;;;;;;;8.75;0.93;;;10.90;99.90;;;;;;5052800;28;20465;-71
2023/06/02 03:38:35;;;;;;;10.60;0.95;;;10.80;99.90;;;;;;5053591;28;20440;-71
2023/06/02 03:41:01;;;;;;;12.77;1.17;;;10.80;99.90;;;;;;5053479;28;20040;-71
2023/06/02 03:43:26;;;;;;;8.15;0.80;;;10.80;99.90;;;;;;5064909;28;20024;-71
2023/06/02 03:45:52;;;;;;;10.02;0.85;;;10.80;99.90;;;;;;5066853;28;20032;-71
2023/06/02 03:48:17;;;;;;;7.97;0.90;;;10.80;99.90;;;;;;5051789;28;20389;-71
2023/06/02 03:50:43;;;;;;;8.23;0.90;;;10.80;99.90;;;;;;5059212;28;20036;-72
2023/06/02 03:53:08;;;;;;;11.55;1.02;;;10.80;99.90;;;;;;5059878;28;20033;-71
2023/06/02 03:55:34;;;;;;;10.82;1.20;;;10.80;99.90;;;;;;5051600;28;20025;-71
2023/06/02 03:58:00;;;;;;;11.15;0.88;;;10.90;99.90;;;;;;5067858;28;20028;-71
2023/06/02 04:00:25;;;;;;;7.63;1.10;;;10.80;99.90;;;;;;5070607;28;20056;-71
2023/06/02 04:02:51;;;;;;;8.18;0.90;;;10.90;99.90;;;;;;5053814;28;20071;-71
2023/06/02 04:05:16;;;;;;;13.02;1.48;;;10.80;99.90;;;;;;5051514;28;20056;-71
2023/06/02 04:07:42;;;;;;;7.53;1.17;;;10.80;99.90;;;;;;5052762;28;20071;-71
2023/06/02 04:10:08;;;;;;;4.10;0.63;;;10.80;99.90;;;;;;5060107;28;20032;-71
2023/06/02 04:12:33;;;;;;;10.80;1.40;;;10.80;99.90;;;;;;5052499;28;20362;-72
2023/06/02 04:15:00;;;;;;;11.55;1.20;;;10.80;99.90;;;;;;5060543;28;20070;-72
2023/06/02 04:17:26;;;;;;;11.82;1.00;;;10.80;99.90;;;;;;5063348;28;20510;-72
2023/06/02 04:19:52;;;;;;;7.50;0.73;;;10.90;99.90;;;;;;5061251;28;20115;-72
2023/06/02 04:22:19;;;;;;;10.05;0.95;;;10.80;99.90;;;;;;5054901;28;20040;-72
2023/06/02 04:24:45;;;;;;;8.23;1.65;;;10.80;99.90;;;;;;5062253;28;20108;-72
2023/06/02 04:27:11;;;;;;;5.88;0.90;;;10.80;99.90;;;;;;5057150;28;20540;-72
2023/06/02 04:29:37;;;;;;;9.45;1.17;;;10.80;99.90;;;;;;5058198;28;20111;-71
2023/06/02 04:32:03;;;;;;;10.32;1.00;;;10.80;99.90;;;;;;5069847;28;20024;-72
2023/06/02 04:34:30;;;;;;;8.93;1.33;;;10.80;99.90;;;;;;5057288;28;20032;-71
2023/06/02 04:36:55;;;;;;;12.07;1.75;;;10.80;99.90;;;;;;5057949;28;20028;-72
2023/06/02 04:39:21;;;;;;;8.80;1.10;;;10.80;99.90;;;;;;5062393;28;20029;-72
2023/06/02 04:41:48;;;;;;;12.63;1.13;;;10.80;99.90;;;;;;5066139;28;20028;-71
2023/06/02 04:44:16;;;;;;;7.03;0.93;;;10.80;99.90;;;;;;5052075;28;20028;-72
2023/06/02 04:46:42;;;;;;;14.35;1.33;;;10.80;99.90;;;;;;5059711;28;20469;-72
2023/06/02 04:49:09;;;;;;;10.48;0.90;;;10.80;99.90;;;;;;5069503;28;20074;-72
2023/06/02 04:51:35;;;;;;;9.13;1.30;;;10.80;99.90;;;;;;5062333;28;20503;-72
2023/06/02 04:54:01;;;;;;;16.55;2.20;;;10.80;99.90;;;;;;5063580;28;20396;-72
2023/06/02 04:56:27;;;;;;;11.48;1.00;;;10.80;99.90;;;;;;5065424;28;20020;-72
2023/06/02 04:58:53;;;;;;;14.43;1.10;;;10.80;99.90;;;;;;5060823;28;20067;-72
2023/06/02 05:01:19;;;;;;;11.52;1.30;;;10.80;99.90;;;;;;5051745;28;20039;-72
2023/06/02 05:03:44;;;;;;;7.00;1.05;;;10.80;99.90;;;;;;5059538;28;20500;-72
2023/06/02 05:06:10;;;;;;;18.55;1.50;;;10.80;99.90;;;;;;5060007;28;20033;-72
2023/06/02 05:08:36;;;;;;;12.35;1.52;;;10.80;99.90;;;;;;5056795;28;20392;-72
2023/06/02 05:11:02;;;;;;;13.35;0.95;;;10.90;99.90;;;;;;5054023;28;20520;-71
2023/06/02 05:13:28;;;;;;;12.63;1.10;;;10.80;99.90;;;;;;5052580;28;20020;-72
2023/06/02 05:15:57;;;;;;;12.25;0.82;;;10.90;99.90;;;;;;5051182;28;20060;-72
2023/06/02 05:18:23;;;;;;;12.05;1.13;;;10.90;99.90;;;;;;5057229;28;20052;-73
2023/06/02 05:20:50;;;;;;;17.45;1.35;;;10.90;99.90;;;;;;5054019;28;20043;-72
2023/06/02 05:23:17;;;;;;;9.80;1.15;;;10.90;99.90;;;;;;5056180;28;20074;-72
2023/06/02 05:25:42;;;;;;;10.38;0.75;;;11.00;99.90;;;;;;5051588;28;20049;-72
2023/06/02 05:28:08;;;;;;;10.88;1.23;;;11.00;99.90;;;;;;5052133;28;20033;-73
2023/06/02 05:30:35;;;;;;;15.20;1.85;;;11.10;99.90;;;;;;5050666;28;20051;-72
2023/06/02 05:33:04;;;;;;;5.95;0.60;;;11.20;99.90;;;;;;5057524;28;20109;-72
2023/06/02 05:35:29;;;;;;;6.40;0.98;;;11.20;99.90;;;;;;5053378;28;20024;-72
2023/06/02 05:37:56;;;;;;;16.08;1.27;;;11.20;99.90;;;;;;5055562;28;20025;-73
2023/06/02 05:40:21;;;;;;;11.63;1.30;;;11.30;99.90;;;;;;5054174;28;20040;-72
2023/06/02 05:42:47;;;;;;;8.85;1.27;;;11.30;99.90;;;;;;5054785;28;20025;-72
2023/06/02 05:45:13;;;;;;;9.32;0.90;;;11.40;99.90;;;;;;5050550;28;20473;-72
2023/06/02 05:47:39;;;;;;;5.78;1.38;;;11.40;99.90;;;;;;5051442;28;20492;-72
2023/06/02 05:50:05;;;;;;;8.75;1.33;;;11.50;99.90;;;;;;5050909;28;20033;-73
2023/06/02 05:52:31;;;;;;;7.30;0.85;;;11.50;99.90;;;;;;5050500;28;20098;-72
2023/06/02 05:54:56;;;;;;;12.65;1.98;;;11.50;99.90;;;;;;5053494;28;20021;-72
2023/06/02 05:57:22;;;;;;;12.18;0.93;;;11.50;99.90;;;;;;5053628;28;20033;-73
2023/06/02 05:59:47;;;;;;;9.00;1.05;;;11.50;99.90;;;;;;5054912;28;20049;-73
2023/06/02 06:02:13;;;;;;;59.45;5.18;;;11.60;99.90;;;;;;5059500;28;20033;-72
2023/06/02 06:04:38;;;;;;;15.07;1.35;;;11.60;99.90;;;;;;5050261;28;20029;-71
2023/06/02 06:07:05;;;;;;;15.88;1.20;;;11.70;99.90;;;;;;5051615;28;20435;-72
2023/06/02 06:09:31;;;;;;;12.07;1.02;;;11.70;99.90;;;;;;5050584;28;20388;-72
2023/06/02 06:11:56;;;;;;;7.88;1.10;;;11.70;99.90;;;;;;5056487;28;20024;-73
2023/06/02 06:14:22;;;;;;;7.05;0.88;;;11.80;99.90;;;;;;5053328;28;20407;-72
2023/06/02 06:16:47;;;;;;;7.03;1.33;;;11.80;99.90;;;;;;5058893;28;20032;-73
2023/06/02 06:19:13;;;;;;;8.77;1.10;;;11.90;99.90;;;;;;5056510;28;20116;-71
2023/06/02 06:21:39;;;;;;;92.45;7.35;;;12.00;99.90;;;;;;5050886;28;20067;-72
2023/06/02 06:24:07;;;;;;;27.52;3.47;;;12.00;99.90;;;;;;5055905;28;20036;-73
2023/06/02 06:26:34;;;;;;;10.57;0.95;;;12.00;99.90;;;;;;5056929;28;20047;-73
2023/06/02 06:28:59;;;;;;;11.57;0.98;;;12.10;99.90;;;;;;5051687;28;20516;-71
2023/06/02 06:31:25;;;;;;;9.88;1.08;;;12.20;99.90;;;;;;5060718;28;20117;-71
2023/06/02 06:33:51;;;;;;;8.32;1.52;;;12.20;99.90;;;;;;5060849;28;20036;-70
2023/06/02 06:36:17;;;;;;;22.90;2.45;;;12.30;99.90;;;;;;5054327;28;20111;-73
2023/06/02 06:38:43;;;;;;;7.43;1.15;;;12.30;99.90;;;;;;5056005;28;20054;-73
2023/06/02 06:41:08;;;;;;;11.02;1.00;;;12.30;99.90;;;;;;5046718;28;20691;-71
2023/06/02 06:43:34;;;;;;;7.65;1.10;;;12.40;99.90;;;;;;5055036;28;20025;-72
2023/06/02 06:45:59;;;;;;;11.50;1.05;;;12.50;99.90;;;;;;5050520;28;20060;-71
2023/06/02 06:48:25;;;;;;;10.57;0.88;;;12.50;99.90;;;;;;5056711;28;20025;-72
2023/06/02 06:50:51;;;;;;;12.15;1.00;;;12.60;99.90;;;;;;5064140;28;20032;-72
2023/06/02 06:53:19;;;;;;;17.27;1.90;;;12.70;99.90;;;;;;5064017;28;20024;-72
2023/06/02 06:55:46;;;;;;;9.63;0.80;;;12.70;99.90;;;;;;5055362;28;20032;-73
2023/06/02 06:58:12;;;;;;;7.13;0.90;;;12.80;99.90;;;;;;5053234;28;20170;-72
2023/06/02 07:00:38;;;;;;;6.65;0.75;;;12.90;99.90;;;;;;5060707;28;20144;-72
2023/06/02 07:03:04;;;;;;;22.80;2.03;;;12.90;99.90;;;;;;5062722;28;20492;-73
2023/06/02 07:05:30;;;;;;;12.73;1.92;;;12.90;99.90;;;;;;5056657;28;20569;-72
2023/06/02 07:07:56;;;;;;;13.75;1.42;;;13.00;99.90;;;;;;5053771;28;20029;-72
2023/06/02 07:10:22;;;;;;;11.25;0.88;;;13.00;99.90;;;;;;5056877;28;20029;-73
2023/06/02 07:12:48;;;;;;;13.15;1.67;;;13.10;99.90;;;;;;5054950;28;20052;-73
2023/06/02 07:15:13;;;;;;;12.23;0.80;;;13.10;99.90;;;;;;5057790;28;20029;-74
2023/06/02 07:17:40;;;;;;;5.03;0.73;;;13.20;99.90;;;;;;5071280;28;20029;-74
2023/06/02 07:20:08;;;;;;;13.05;1.40;;;13.30;99.90;;;;;;5062769;28;20037;-74
2023/06/02 07:22:34;;;;;;;8.32;1.33;;;13.30;99.90;;;;;;5056625;28;20024;-73
2023/06/02 07:25:00;;;;;;;8.63;0.90;;;13.20;99.90;;;;;;5056194;28;20029;-73
2023/06/02 07:27:26;;;;;;;11.50;1.10;;;13.20;99.90;;;;;;5073133;28;20575;-73
2023/06/02 07:29:51;;;;;;;9.13;0.95;;;13.30;99.90;;;;;;5055502;28;20061;-73
2023/06/02 07:32:18;;;;;;;5.43;1.05;;;13.30;99.90;;;;;;5059140;28;20386;-73
2023/06/02 07:34:44;;;;;;;10.23;1.20;;;13.40;99.90;;;;;;5066337;28;20025;-73
2023/06/02 07:37:09;;;;;;;12.18;1.52;;;13.60;99.90;;;;;;5054050;28;20031;-73
2023/06/02 07:39:35;;;;;;;10.70;1.15;;;13.70;99.80;;;;;;5053153;28;20080;-73
2023/06/02 07:42:00;;;;;;;6.65;0.95;;;13.90;99.90;;;;;;5053532;28;20017;-73
2023/06/02 07:44:26;;;;;;;11.38;0.90;;;14.10;99.90;;;;;;5053177;28;20037;-73
2023/06/02 07:46:52;;;;;;;11.82;1.10;;;14.30;99.20;;;;;;5052745;28;20142;-73
2023/06/02 07:49:17;;;;;;;13.38;1.00;;;14.40;98.30;;;;;;5052807;28;20444;-74
2023/06/02 07:51:43;;;;;;;11.23;1.00;;;14.50;97.80;;;;;;5070101;28;20029;-73
2023/06/02 07:54:08;;;;;;;11.43;1.23;;;14.50;97.90;;;;;;5059158;28;20029;-73
2023/06/02 07:56:34;;;;;;;8.43;0.80;;;14.60;98.00;;;;;;5052161;28;20040;-73
2023/06/02 07:58:59;;;;;;;11.13;1.02;;;14.80;97.90;;;;;;5052754;28;20560;-73
2023/06/02 08:01:25;;;;;;;6.97;0.93;;;14.80;97.70;;;;;;5049817;28;20164;-74
2023/06/02 08:03:51;;;;;;;10.30;1.20;;;14.90;97.40;;;;;;5065437;28;20438;-73
2023/06/02 08:06:16;;;;;;;8.18;1.15;;;14.90;97.30;;;;;;5052097;28;20044;-73
2023/06/02 08:08:44;;;;;;;10.30;1.70;;;14.90;97.10;;;;;;5052290;28;20055;-73
2023/06/02 08:11:11;;;;;;;16.92;1.55;;;14.70;96.80;;;;;;5054415;28;20024;-73
2023/06/02 08:13:36;;;;;;;11.20;1.00;;;14.60;97.00;;;;;;5059658;28;20052;-73
2023/06/02 08:16:02;;;;;;;10.63;0.98;;;14.70;97.30;;;;;;5060205;28;20587;-73
2023/06/02 08:18:27;;;;;;;9.30;1.45;;;14.60;97.30;;;;;;5056362;28;20056;-73
2023/06/02 08:20:53;;;;;;;6.82;0.68;;;14.50;97.60;;;;;;5057929;28;20098;-73
2023/06/02 08:23:19;;;;;;;9.73;0.93;;;14.60;97.90;;;;;;5061620;28;20021;-73
2023/06/02 08:25:45;;;;;;;6.60;0.65;;;14.50;97.80;;;;;;5052676;28;20477;-73
2023/06/02 08:28:11;;;;;;;11.73;1.02;;;14.50;98.10;;;;;;5052378;28;20436;-73
2023/06/02 08:30:37;;;;;;;12.55;1.55;;;14.40;98.10;;;;;;5052521;28;20122;-73
2023/06/02 08:33:08;;;;;;;6.18;1.00;;;14.40;98.40;;;;;;5052352;28;20439;-73
2023/06/02 08:35:36;;;;;;;9.23;0.93;;;14.50;98.60;;;;;;5052246;28;20021;-73
2023/06/02 08:38:03;;;;;;;7.32;0.80;;;14.60;98.50;;;;;;5050421;28;20123;-73
2023/06/02 08:40:37;;;;;;;11.18;1.20;;;14.70;98.40;;;;;;5062513;28;20114;-73
2023/06/02 08:43:08;;;;;;;7.00;0.98;;;14.70;98.30;;;;;;5052558;28;20013;-73
2023/06/02 08:45:55;;;;;;;9.93;1.42;;;14.70;98.00;;;;;;5066670;28;20016;-73
2023/06/02 08:48:20;;;;;;;7.25;1.00;;;14.80;98.10;;;;;;5059713;28;20456;-73
2023/06/02 08:50:51;;;;;;;13.77;2.42;;;14.90;98.30;;;;;;5052245;28;20029;-73
2023/06/02 08:53:17;;;;;;;11.68;1.33;;;15.10;98.30;;;;;;5053235;28;20526;-73
2023/06/02 08:55:43;;;;;;;6.68;1.15;;;15.30;98.10;;;;;;5055765;28;20025;-73
2023/06/02 08:58:10;;;;;;;11.15;2.03;;;15.30;97.80;;;;;;5053379;28;20056;-73
2023/06/02 09:00:36;;;;;;;8.32;0.73;;;15.20;97.60;;;;;;5071735;28;20057;-73
2023/06/02 09:03:02;;;;;;;12.52;1.20;;;15.30;98.00;;;;;;5058449;28;20447;-73
2023/06/02 09:05:28;;;;;;;9.98;0.90;;;15.40;97.80;;;;;;5071504;28;20021;-73
2023/06/02 09:08:11;;;;;;;9.77;1.42;;;15.50;97.40;;;;;;5059266;28;20053;-73
2023/06/02 09:10:41;;;;;;;6.32;0.70;;;15.60;97.50;;;;;;5051670;28;20036;-73
2023/06/02 09:13:27;;;;;;;9.55;1.58;;;15.70;97.30;;;;;;5058940;28;20495;-73
2023/06/02 09:16:00;;;;;;;7.50;1.92;;;15.70;97.10;;;;;;5071746;28;20029;-73
2023/06/02 09:18:27;;;;;;;11.48;1.35;;;15.70;97.60;;;;;;5064233;28;20032;-73
2023/06/02 09:20:53;;;;;;;10.43;1.33;;;15.70;97.80;;;;;;5060774;28;20039;-73
2023/06/02 09:23:20;;;;;;;10.95;1.88;;;15.90;97.40;;;;;;5057021;28;20020;-73
2023/06/02 09:25:45;;;;;;;7.95;0.93;;;15.80;96.90;;;;;;5071484;28;20059;-73
2023/06/02 09:28:12;;;;;;;11.52;1.25;;;15.80;96.70;;;;;;5071189;28;20052;-74
2023/06/02 09:30:38;;;;;;;6.05;0.85;;;15.80;96.90;;;;;;5069366;28;20496;-73
2023/06/02 09:33:14;;;;;;;11.40;1.00;;;15.80;96.90;;;;;;5057120;28;20472;-73
2023/06/02 09:35:42;;;;;;;7.45;1.15;;;16.00;97.00;;;;;;5062768;28;20024;-73
2023/06/02 09:38:11;;;;;;;9.20;1.02;;;16.10;96.80;;;;;;5052679;28;20028;-73
2023/06/02 09:40:40;;;;;;;21.20;1.48;;;16.20;96.70;;;;;;5067341;28;20112;-73
2023/06/02 09:43:13;;;;;;;11.23;1.60;;;16.20;96.30;;;;;;5050375;28;20033;-73
2023/06/02 09:45:48;;;;;;;12.32;2.08;;;16.20;96.40;;;;;;5071659;28;20028;-73
2023/06/02 09:48:18;;;;;;;6.32;0.88;;;16.30;96.00;;;;;;5070555;28;20533;-73
2023/06/02 09:50:43;;;;;;;8.70;1.33;;;16.10;96.10;;;;;;5069067;28;20027;-73
2023/06/02 09:53:11;;;;;;;8.93;1.00;;;16.10;96.40;;;;;;5060003;28;20044;-73
2023/06/02 09:55:38;;;;;;;13.55;1.90;;;16.10;96.40;;;;;;5076483;28;20016;-73
2023/06/02 09:58:04;;;;;;;9.05;0.95;;;16.10;96.30;;;;;;5071443;28;20380;-73
2023/06/02 10:00:31;;;;;;;12.70;1.65;;;16.30;96.30;;;;;;5067729;28;20764;-73
2023/06/02 10:02:57;;;;;;;10.00;1.85;;;16.30;96.10;;;;;;5050878;28;20025;-73
2023/06/02 10:05:23;;;;;;;9.00;1.65;;;16.40;96.20;;;;;;5049838;28;20043;-73
2023/06/02 10:08:04;;;;;;;10.13;1.80;;;16.40;96.20;;;;;;5051700;28;20033;-73
2023/06/02 10:10:39;;;;;;;12.77;1.42;;;16.40;96.30;;;;;;5051224;28;20155;-73
2023/06/02 10:13:46;;;;;;;9.70;1.40;;;16.50;96.10;;;;;;5048895;28;20507;-73
2023/06/02 10:16:18;;;;;;;6.07;1.10;;;16.60;96.20;;;;;;5053729;28;20107;-73
2023/06/02 10:19:05;;;;;;;10.82;1.88;;;16.70;96.20;;;;;;5054822;28;20025;-73
2023/06/02 10:21:58;;;;;;;10.85;1.23;;;16.80;96.50;;;;;;5065577;28;20149;-74
2023/06/02 10:25:02;;;;;;;14.27;1.60;;;16.90;96.10;;;;;;5059711;28;20017;-73
2023/06/02 10:27:37;;;;;;;11.13;1.13;;;17.00;95.70;;;;;;5056543;28;20036;-73
2023/06/02 10:30:04;;;;;;;10.25;1.42;;;17.30;95.80;;;;;;5064865;28;20020;-73
2023/06/02 10:32:41;;;;;;;6.97;1.38;;;17.40;95.40;;;;;;5054129;28;20025;-73
2023/06/02 10:35:07;;;;;;;8.02;1.20;;;17.40;94.80;;;;;;5054807;28;20028;-73
2023/06/02 10:37:34;;;;;;;6.55;1.30;;;17.40;94.70;;;;;;5057974;28;20023;-73
2023/06/02 10:40:00;;;;;;;10.38;2.20;;;17.30;94.60;;;;;;5062683;28;20045;-73
2023/06/02 10:42:31;;;;;;;10.77;1.30;;;17.40;94.60;;;;;;5074242;28;20021;-73
2023/06/02 10:45:21;;;;;;;8.98;1.42;;;17.50;94.60;;;;;;5071147;28;20060;-73
2023/06/02 10:47:47;;;;;;;10.10;1.45;;;17.60;94.30;;;;;;5065742;28;20032;-73
2023/06/02 10:50:21;;;;;;;8.25;1.33;;;17.60;94.10;;;;;;5054292;28;20412;-73
2023/06/02 10:52:59;;;;;;;11.40;1.67;;;17.60;94.00;;;;;;5051999;28;20021;-73
2023/06/02 10:55:26;;;;;;;9.10;1.50;;;17.70;93.80;;;;;;5060345;28;20388;-73
2023/06/02 10:57:55;;;;;;;7.50;1.40;;;17.70;93.90;;;;;;5064638;28;20044;-73
2023/06/02 11:00:35;;;;;;;9.63;1.83;;;17.90;93.80;;;;;;5060417;28;20138;-73
2023/06/02 11:03:04;;;;;;;8.15;2.10;;;18.00;93.70;;;;;;5054391;28;20089;-73
2023/06/02 11:05:31;;;;;;;7.45;1.48;;;18.00;93.80;;;;;;5053711;28;20151;-73
2023/06/02 11:08:25;;;;;;;8.00;1.50;;;18.00;93.40;;;;;;5054206;28;20025;-73
2023/06/02 11:10:55;;;;;;;10.05;1.50;;;18.00;93.30;;;;;;5057329;28;20032;-73
2023/06/02 11:13:22;;;;;;;6.38;1.40;;;18.00;93.10;;;;;;5052949;28;20492;-73
2023/06/02 11:15:53;;;;;;;10.40;1.75;;;18.00;92.70;;;;;;5056624;28;20344;-73
2023/06/02 11:18:22;;;;;;;8.65;1.25;;;18.00;92.60;;;;;;5060106;28;20256;-73
2023/06/02 11:20:53;;;;;;;10.25;1.88;;;18.00;92.80;;;;;;5059932;28;20044;-73
2023/06/02 11:23:19;;;;;;;9.15;1.15;;;18.20;92.80;;;;;;5056111;28;20159;-73
2023/06/02 11:25:45;;;;;;;6.88;1.80;;;18.30;92.40;;;;;;5057120;28;20031;-74
2023/06/02 11:28:20;;;;;;;8.15;1.40;;;18.30;92.10;;;;;;5059740;28;20029;-73
2023/06/02 11:30:46;;;;;;;9.60;2.03;;;18.40;92.00;;;;;;5060374;28;20392;-73
2023/06/02 11:33:11;;;;;;;6.68;1.80;;;18.40;91.60;;;;;;5046857;28;20016;-73
2023/06/02 11:35:37;;;;;;;6.18;1.45;;;18.30;91.70;;;;;;5050207;28;20033;-73
2023/06/02 11:38:07;;;;;;;8.75;1.80;;;18.30;91.70;;;;;;5046528;28;20059;-73
2023/06/02 11:40:35;;;;;;;10.40;2.35;;;18.40;91.90;;;;;;5054279;28;20040;-73
2023/06/02 11:43:02;;;;;;;7.75;1.85;;;18.60;91.90;;;;;;5052687;28;20017;-73
2023/06/02 11:45:28;;;;;;;11.10;2.15;;;18.70;91.80;;;;;;5053281;28;20024;-73
2023/06/02 11:47:58;;;;;;;10.95;2.25;;;18.80;91.80;;;;;;5051906;28;20453;-73
2023/06/02 11:50:24;;;;;;;8.38;2.00;;;18.80;91.10;;;;;;5053658;28;20036;-72
2023/06/02 11:52:49;;;;;;;9.73;2.05;;;18.80;91.20;;;;;;5058878;28;20029;-72
2023/06/02 11:55:15;;;;;;;9.63;2.25;;;18.80;91.50;;;;;;5061651;28;20459;-73
2023/06/02 11:57:43;;;;;;;9.57;2.28;;;18.90;91.30;;;;;;5061174;28;20027;-72
2023/06/02 12:00:15;;;;;;;9.57;1.90;;;18.90;91.20;;;;;;5059170;28;20053;-72
2023/06/02 12:02:48;;;;;;;;;;;19.10;91.20;;;;;;5064856;28;20625;-72
2023/06/02 12:05:36;;;;;;;6.43;1.65;;;19.30;91.10;;;;;;5054425;28;19935;-73
2023/06/02 12:08:24;;;;;;;10.25;2.47;;;19.60;90.70;;;;;;5058570;28;20532;-72
2023/06/02 12:10:53;;;;;;;9.25;2.00;;;19.60;90.00;;;;;;5050901;28;20029;-72
2023/06/02 12:13:30;;;;;;;9.30;2.38;;;19.60;89.20;;;;;;5065558;28;20036;-72
2023/06/02 12:16:18;;;;;;;7.65;1.75;;;19.40;89.70;;;;;;5064398;28;20029;-72
2023/06/02 12:18:43;;;;;;;11.00;2.10;;;19.50;89.30;;;;;;5058397;28;20052;-72
2023/06/02 12:21:21;;;;;;;16.77;3.08;;;19.60;88.30;;;;;;5044377;28;22140;-73
2023/06/02 12:23:47;;;;;;;7.63;1.98;;;19.50;87.70;;;;;;5043220;28;20780;-72
2023/06/02 12:26:13;;;;;;;14.52;2.30;;;19.40;89.20;;;;;;5048348;28;20039;-72
2023/06/02 12:28:39;;;;;;;11.75;2.33;;;19.60;89.20;;;;;;5047315;28;20044;-73
2023/06/02 12:31:05;;;;;;;14.20;2.50;;;19.70;88.00;;;;;;5051576;28;20381;-73
2023/06/02 12:33:31;;;;;;;8.63;1.80;;;19.80;87.20;;;;;;5051707;28;20028;-72
2023/06/02 12:35:57;;;;;;;14.32;2.60;;;19.70;88.20;;;;;;5041703;28;20025;-72
2023/06/02 12:38:23;;;;;;;12.35;2.40;;;19.90;89.00;;;;;;5042369;23;20068;-73
2023/06/02 12:40:50;;;;;;;11.90;2.28;;;20.10;88.00;;;;;;5044966;28;20032;-73
2023/06/02 12:43:18;;;;;;;9.02;1.90;;;20.20;87.30;;;;;;5056938;28;20024;-72